sensor_id;sensor_type;location;lat;lon;timestamp;pressure;altitude;pressure_sealevel;temperature;humidity
42001;BME280;27689;48.390;10.856;2022-08-21T00:02:21;96249.03;;;16.53;100.00
42001;BME280;27689;48.390;10.856;2022-08-21T00:05:06;96249.38;;;16.50;100.00
42001;BME280;27689;48.390;10.856;2022-08-21T00:07:50;96247.91;;;16.48;100.00
42001;BME280;27689;48.390;10.856;2022-08-21T00:10:34;96252.59;;;16.46;100.00
42001;BME280;27689;48.390;10.856;2022-08-21T00:13:19;96252.38;;;16.47;100.00
42001;BME280;27689;48.390;10.856;2022-08-21T00:16:04;96248.56;;;16.50;100.00
42001;BME280;27689;48.390;10.856;2022-08-21T00:18:49;96244.66;;;16.46;100.00
42001;BME280;27689;48.390;10.856;2022-08-21T00:21:34;96238.53;;;16.45;100.00
42001;BME280;27689;48.390;10.856;2022-08-21T00:24:19;96242.28;;;16.51;100.00
42001;BME280;27689;48.390;10.856;2022-08-21T00:27:03;96246.47;;;16.45;100.00
42001;BME280;27689;48.390;10.856;2022-08-21T00:29:47;96239.53;;;16.44;100.00
42001;BME280;27689;48.390;10.856;2022-08-21T00:32:31;96243.66;;;16.47;100.00
42001;BME280;27689;48.390;10.856;2022-08-21T00:35:18;96234.25;;;16.44;100.00
42001;BME280;27689;48.390;10.856;2022-08-21T00:38:04;96225.22;;;16.39;100.00
42001;BME280;27689;48.390;10.856;2022-08-21T00:40:54;96229.84;;;16.37;100.00
42001;BME280;27689;48.390;10.856;2022-08-21T00:43:39;96237.97;;;16.35;100.00
42001;BME280;27689;48.390;10.856;2022-08-21T00:46:23;96231.22;;;16.33;100.00
42001;BME280;27689;48.390;10.856;2022-08-21T00:49:09;96229.38;;;16.33;100.00
42001;BME280;27689;48.390;10.856;2022-08-21T00:51:57;96234.41;;;16.28;100.00
42001;BME280;27689;48.390;10.856;2022-08-21T00:54:43;96232.41;;;16.30;100.00
42001;BME280;27689;48.390;10.856;2022-08-21T00:57:31;96230.41;;;16.32;100.00
42001;BME280;27689;48.390;10.856;2022-08-21T01:00:20;96236.22;;;16.28;100.00
42001;BME280;27689;48.390;10.856;2022-08-21T01:03:10;96226.81;;;16.25;100.00
42001;BME280;27689;48.390;10.856;2022-08-21T01:05:55;96228.53;;;16.18;100.00
42001;BME280;27689;48.390;10.856;2022-08-21T01:08:39;96223.81;;;16.13;100.00
42001;BME280;27689;48.390;10.856;2022-08-21T01:11:23;96233.38;;;16.14;100.00
42001;BME280;27689;48.390;10.856;2022-08-21T01:14:07;96228.25;;;16.13;100.00
42001;BME280;27689;48.390;10.856;2022-08-21T01:16:51;96229.16;;;16.20;100.00
42001;BME280;27689;48.390;10.856;2022-08-21T01:19:36;96227.63;;;16.11;100.00
42001;BME280;27689;48.390;10.856;2022-08-21T01:22:20;96228.63;;;16.10;100.00
42001;BME280;27689;48.390;10.856;2022-08-21T01:25:06;96230.72;;;16.14;100.00
42001;BME280;27689;48.390;10.856;2022-08-21T01:27:51;96221.16;;;16.13;100.00
42001;BME280;27689;48.390;10.856;2022-08-21T01:30:35;96225.97;;;16.10;100.00
42001;BME280;27689;48.390;10.856;2022-08-21T01:33:22;96225.66;;;16.05;100.00
42001;BME280;27689;48.390;10.856;2022-08-21T01:36:07;96220.28;;;15.98;100.00
42001;BME280;27689;48.390;10.856;2022-08-21T01:38:52;96223.09;;;15.97;100.00
42001;BME280;27689;48.390;10.856;2022-08-21T01:41:36;96220.00;;;15.93;100.00
42001;BME280;27689;48.390;10.856;2022-08-21T01:44:24;96220.63;;;15.95;100.00
42001;BME280;27689;48.390;10.856;2022-08-21T01:47:10;96221.34;;;15.89;100.00
42001;BME280;27689;48.390;10.856;2022-08-21T01:49:54;96213.97;;;15.84;100.00
42001;BME280;27689;48.390;10.856;2022-08-21T01:52:38;96216.06;;;15.89;100.00
42001;BME280;27689;48.390;10.856;2022-08-21T01:55:23;96221.72;;;15.86;100.00
42001;BME280;27689;48.390;10.856;2022-08-21T01:58:07;96206.69;;;15.86;100.00
42001;BME280;27689;48.390;10.856;2022-08-21T02:00:51;96208.84;;;15.83;100.00
42001;BME280;27689;48.390;10.856;2022-08-21T02:03:35;96208.91;;;15.98;100.00
42001;BME280;27689;48.390;10.856;2022-08-21T02:06:20;96210.16;;;15.87;100.00
42001;BME280;27689;48.390;10.856;2022-08-21T02:09:05;96205.91;;;15.78;100.00
42001;BME280;27689;48.390;10.856;2022-08-21T02:11:50;96211.00;;;15.79;100.00
42001;BME280;27689;48.390;10.856;2022-08-21T02:14:35;96199.53;;;15.72;100.00
42001;BME280;27689;48.390;10.856;2022-08-21T02:17:19;96204.56;;;15.82;100.00
42001;BME280;27689;48.390;10.856;2022-08-21T02:20:03;96206.38;;;15.81;100.00
42001;BME280;27689;48.390;10.856;2022-08-21T02:22:48;96204.22;;;15.85;100.00
42001;BME280;27689;48.390;10.856;2022-08-21T02:25:33;96199.81;;;15.77;100.00
42001;BME280;27689;48.390;10.856;2022-08-21T02:28:17;96201.63;;;15.77;100.00
42001;BME280;27689;48.390;10.856;2022-08-21T02:31:01;96204.25;;;15.77;100.00
42001;BME280;27689;48.390;10.856;2022-08-21T02:33:45;96193.22;;;15.73;100.00
42001;BME280;27689;48.390;10.856;2022-08-21T02:36:29;96193.59;;;15.70;100.00
42001;BME280;27689;48.390;10.856;2022-08-21T02:39:13;96199.69;;;15.71;100.00
42001;BME280;27689;48.390;10.856;2022-08-21T02:41:57;96193.94;;;15.67;100.00
42001;BME280;27689;48.390;10.856;2022-08-21T02:44:41;96199.56;;;15.64;100.00
42001;BME280;27689;48.390;10.856;2022-08-21T02:47:25;96193.94;;;15.67;100.00
42001;BME280;27689;48.390;10.856;2022-08-21T02:50:09;96197.22;;;15.69;100.00
42001;BME280;27689;48.390;10.856;2022-08-21T02:52:54;96201.56;;;15.62;100.00
42001;BME280;27689;48.390;10.856;2022-08-21T02:55:38;96203.72;;;15.59;100.00
42001;BME280;27689;48.390;10.856;2022-08-21T02:58:25;96199.78;;;15.55;100.00
42001;BME280;27689;48.390;10.856;2022-08-21T03:01:09;96198.31;;;15.52;100.00
42001;BME280;27689;48.390;10.856;2022-08-21T03:03:54;96199.31;;;15.51;100.00
42001;BME280;27689;48.390;10.856;2022-08-21T03:06:38;96203.59;;;15.52;100.00
42001;BME280;27689;48.390;10.856;2022-08-21T03:09:22;96201.28;;;15.49;100.00
42001;BME280;27689;48.390;10.856;2022-08-21T03:12:06;96203.09;;;15.48;100.00
42001;BME280;27689;48.390;10.856;2022-08-21T03:14:50;96198.66;;;15.49;100.00
42001;BME280;27689;48.390;10.856;2022-08-21T03:17:34;96198.16;;;15.45;100.00
42001;BME280;27689;48.390;10.856;2022-08-21T03:20:20;96209.38;;;15.47;100.00
42001;BME280;27689;48.390;10.856;2022-08-21T03:23:06;96203.28;;;15.47;100.00
42001;BME280;27689;48.390;10.856;2022-08-21T03:25:50;96203.81;;;15.42;100.00
42001;BME280;27689;48.390;10.856;2022-08-21T03:28:34;96204.44;;;15.44;100.00
42001;BME280;27689;48.390;10.856;2022-08-21T03:31:18;96200.34;;;15.42;100.00
42001;BME280;27689;48.390;10.856;2022-08-21T03:34:02;96205.97;;;15.39;100.00
42001;BME280;27689;48.390;10.856;2022-08-21T03:36:47;96199.72;;;15.40;100.00
42001;BME280;27689;48.390;10.856;2022-08-21T03:39:31;96202.53;;;15.38;100.00
42001;BME280;27689;48.390;10.856;2022-08-21T03:42:15;96207.00;;;15.30;100.00
42001;BME280;27689;48.390;10.856;2022-08-21T03:45:00;96198.63;;;15.26;100.00
42001;BME280;27689;48.390;10.856;2022-08-21T03:47:55;96203.53;;;15.29;100.00
42001;BME280;27689;48.390;10.856;2022-08-21T03:50:42;96219.38;;;15.29;100.00
42001;BME280;27689;48.390;10.856;2022-08-21T03:53:27;96219.22;;;15.31;100.00
42001;BME280;27689;48.390;10.856;2022-08-21T03:56:11;96212.28;;;15.30;100.00
42001;BME280;27689;48.390;10.856;2022-08-21T03:58:55;96210.63;;;15.29;100.00
42001;BME280;27689;48.390;10.856;2022-08-21T04:01:39;96205.72;;;15.26;100.00
42001;BME280;27689;48.390;10.856;2022-08-21T04:04:23;96217.56;;;15.30;100.00
42001;BME280;27689;48.390;10.856;2022-08-21T04:07:07;96203.75;;;15.28;100.00
42001;BME280;27689;48.390;10.856;2022-08-21T04:09:51;96202.28;;;15.25;100.00
42001;BME280;27689;48.390;10.856;2022-08-21T04:12:35;96213.66;;;15.26;100.00
42001;BME280;27689;48.390;10.856;2022-08-21T04:15:20;96217.78;;;15.20;100.00
42001;BME280;27689;48.390;10.856;2022-08-21T04:18:05;96221.91;;;15.23;100.00
42001;BME280;27689;48.390;10.856;2022-08-21T04:20:51;96227.69;;;15.18;100.00
42001;BME280;27689;48.390;10.856;2022-08-21T04:23:36;96227.69;;;15.18;100.00
42001;BME280;27689;48.390;10.856;2022-08-21T04:26:20;96230.50;;;15.16;100.00
42001;BME280;27689;48.390;10.856;2022-08-21T04:29:05;96224.56;;;15.14;100.00
42001;BME280;27689;48.390;10.856;2022-08-21T04:31:50;96230.03;;;15.13;100.00
42001;BME280;27689;48.390;10.856;2022-08-21T04:34:35;96224.94;;;15.11;100.00
42001;BME280;27689;48.390;10.856;2022-08-21T04:37:20;96236.31;;;15.12;100.00
42001;BME280;27689;48.390;10.856;2022-08-21T04:40:05;96241.44;;;15.13;100.00
42001;BME280;27689;48.390;10.856;2022-08-21T04:42:53;96241.09;;;15.08;100.00
42001;BME280;27689;48.390;10.856;2022-08-21T04:45:43;96246.38;;;15.08;100.00
42001;BME280;27689;48.390;10.856;2022-08-21T04:48:28;96241.63;;;15.04;100.00
42001;BME280;27689;48.390;10.856;2022-08-21T04:54:01;96242.28;;;15.06;100.00
42001;BME280;27689;48.390;10.856;2022-08-21T04:56:56;96241.63;;;15.04;100.00
42001;BME280;27689;48.390;10.856;2022-08-21T04:59:46;96246.22;;;15.02;100.00
42001;BME280;27689;48.390;10.856;2022-08-21T05:02:31;96243.75;;;15.00;100.00
42001;BME280;27689;48.390;10.856;2022-08-21T05:05:16;96244.56;;;15.09;100.00
42001;BME280;27689;48.390;10.856;2022-08-21T05:08:01;96248.38;;;15.06;100.00
42001;BME280;27689;48.390;10.856;2022-08-21T05:10:45;96253.31;;;15.09;100.00
42001;BME280;27689;48.390;10.856;2022-08-21T05:13:30;96254.78;;;15.12;100.00
42001;BME280;27689;48.390;10.856;2022-08-21T05:16:14;96244.06;;;15.13;100.00
42001;BME280;27689;48.390;10.856;2022-08-21T05:18:59;96247.81;;;15.19;100.00
42001;BME280;27689;48.390;10.856;2022-08-21T05:21:45;96245.19;;;15.19;100.00
42001;BME280;27689;48.390;10.856;2022-08-21T05:24:29;96247.16;;;15.17;100.00
42001;BME280;27689;48.390;10.856;2022-08-21T05:27:13;96257.38;;;15.28;100.00
42001;BME280;27689;48.390;10.856;2022-08-21T05:29:58;96246.16;;;15.26;100.00
42001;BME280;27689;48.390;10.856;2022-08-21T05:32:42;96252.88;;;15.29;100.00
42001;BME280;27689;48.390;10.856;2022-08-21T05:35:27;96259.28;;;15.34;100.00
42001;BME280;27689;48.390;10.856;2022-08-21T05:38:12;96249.38;;;15.36;100.00
42001;BME280;27689;48.390;10.856;2022-08-21T05:40:55;96255.97;;;15.40;100.00
42001;BME280;27689;48.390;10.856;2022-08-21T05:43:39;96241.06;;;15.47;100.00
42001;BME280;27689;48.390;10.856;2022-08-21T05:46:23;96250.63;;;15.48;100.00
42001;BME280;27689;48.390;10.856;2022-08-21T05:49:08;96256.75;;;15.49;100.00
42001;BME280;27689;48.390;10.856;2022-08-21T05:51:52;96251.78;;;15.54;100.00
42001;BME280;27689;48.390;10.856;2022-08-21T05:54:37;96252.28;;;15.58;100.00
42001;BME280;27689;48.390;10.856;2022-08-21T05:57:21;96252.22;;;15.66;100.00
42001;BME280;27689;48.390;10.856;2022-08-21T06:00:06;96244.59;;;15.71;100.00
42001;BME280;27689;48.390;10.856;2022-08-21T06:02:52;96250.53;;;15.73;100.00
42001;BME280;27689;48.390;10.856;2022-08-21T06:05:35;96244.22;;;15.74;100.00
42001;BME280;27689;48.390;10.856;2022-08-21T06:08:21;96246.69;;;15.75;100.00
42001;BME280;27689;48.390;10.856;2022-08-21T06:11:05;96243.66;;;15.86;100.00
42001;BME280;27689;48.390;10.856;2022-08-21T06:13:50;96239.22;;;15.87;100.00
42001;BME280;27689;48.390;10.856;2022-08-21T06:16:34;96253.34;;;15.94;100.00
42001;BME280;27689;48.390;10.856;2022-08-21T06:19:18;96251.19;;;15.98;100.00
42001;BME280;27689;48.390;10.856;2022-08-21T06:22:02;96261.50;;;16.07;100.00
42001;BME280;27689;48.390;10.856;2022-08-21T06:24:46;96259.97;;;16.13;100.00
42001;BME280;27689;48.390;10.856;2022-08-21T06:27:30;96265.34;;;16.19;100.00
42001;BME280;27689;48.390;10.856;2022-08-21T06:30:14;96256.25;;;16.22;100.00
42001;BME280;27689;48.390;10.856;2022-08-21T06:32:58;96269.25;;;16.32;100.00
42001;BME280;27689;48.390;10.856;2022-08-21T06:35:42;96265.41;;;16.34;100.00
42001;BME280;27689;48.390;10.856;2022-08-21T06:38:26;96264.69;;;16.40;100.00
42001;BME280;27689;48.390;10.856;2022-08-21T06:41:10;96267.63;;;16.45;100.00
42001;BME280;27689;48.390;10.856;2022-08-21T06:43:55;96268.72;;;16.51;100.00
42001;BME280;27689;48.390;10.856;2022-08-21T06:46:39;96263.56;;;16.57;100.00
42001;BME280;27689;48.390;10.856;2022-08-21T06:49:23;96263.84;;;16.63;100.00
42001;BME280;27689;48.390;10.856;2022-08-21T06:52:11;96270.53;;;16.73;100.00
42001;BME280;27689;48.390;10.856;2022-08-21T06:54:56;96264.06;;;16.76;100.00
42001;BME280;27689;48.390;10.856;2022-08-21T06:57:40;96262.97;;;16.85;100.00
42001;BME280;27689;48.390;10.856;2022-08-21T07:00:24;96266.72;;;16.90;100.00
42001;BME280;27689;48.390;10.856;2022-08-21T07:06:07;96267.16;;;17.09;100.00
42001;BME280;27689;48.390;10.856;2022-08-21T07:08:51;96258.78;;;17.20;100.00
42001;BME280;27689;48.390;10.856;2022-08-21T07:11:36;96268.06;;;17.31;100.00
42001;BME280;27689;48.390;10.856;2022-08-21T07:14:21;96261.22;;;17.36;100.00
42001;BME280;27689;48.390;10.856;2022-08-21T07:17:05;96260.00;;;17.39;100.00
42001;BME280;27689;48.390;10.856;2022-08-21T07:19:49;96266.56;;;17.43;100.00
42001;BME280;27689;48.390;10.856;2022-08-21T07:22:36;96267.19;;;17.59;100.00
42001;BME280;27689;48.390;10.856;2022-08-21T07:25:21;96270.75;;;17.67;100.00
42001;BME280;27689;48.390;10.856;2022-08-21T07:28:05;96270.47;;;17.76;100.00
42001;BME280;27689;48.390;10.856;2022-08-21T07:30:54;96256.91;;;17.86;100.00
42001;BME280;27689;48.390;10.856;2022-08-21T07:33:39;96257.16;;;17.91;100.00
42001;BME280;27689;48.390;10.856;2022-08-21T07:36:24;96264.34;;;17.97;100.00
42001;BME280;27689;48.390;10.856;2022-08-21T07:39:09;96255.81;;;18.02;98.28
42001;BME280;27689;48.390;10.856;2022-08-21T07:41:53;96265.59;;;18.01;97.72
42001;BME280;27689;48.390;10.856;2022-08-21T07:44:37;96264.41;;;18.04;98.18
42001;BME280;27689;48.390;10.856;2022-08-21T07:47:21;96249.97;;;18.06;98.25
42001;BME280;27689;48.390;10.856;2022-08-21T07:50:06;96264.53;;;18.17;98.52
42001;BME280;27689;48.390;10.856;2022-08-21T07:52:49;96252.72;;;18.19;98.29
42001;BME280;27689;48.390;10.856;2022-08-21T07:55:34;96263.66;;;18.31;97.89
42001;BME280;27689;48.390;10.856;2022-08-21T07:58:18;96250.63;;;18.36;95.67
42001;BME280;27689;48.390;10.856;2022-08-21T08:01:02;96257.41;;;18.39;99.20
42001;BME280;27689;48.390;10.856;2022-08-21T08:03:46;96258.25;;;18.46;99.72
42001;BME280;27689;48.390;10.856;2022-08-21T08:06:30;96252.59;;;18.55;100.00
42001;BME280;27689;48.390;10.856;2022-08-21T08:09:14;96245.38;;;18.64;98.59
42001;BME280;27689;48.390;10.856;2022-08-21T08:11:58;96250.31;;;18.74;97.29
42001;BME280;27689;48.390;10.856;2022-08-21T08:14:42;96256.50;;;18.81;95.73
42001;BME280;27689;48.390;10.856;2022-08-21T08:17:27;96254.69;;;18.88;97.88
42001;BME280;27689;48.390;10.856;2022-08-21T08:20:13;96244.56;;;18.98;96.50
42001;BME280;27689;48.390;10.856;2022-08-21T08:22:58;96249.78;;;19.19;98.97
42001;BME280;27689;48.390;10.856;2022-08-21T08:25:43;96250.19;;;19.23;92.83
42001;BME280;27689;48.390;10.856;2022-08-21T08:28:27;96241.03;;;19.25;89.84
42001;BME280;27689;48.390;10.856;2022-08-21T08:31:11;96241.66;;;19.34;91.69
42001;BME280;27689;48.390;10.856;2022-08-21T08:33:54;96236.47;;;19.54;92.13
42001;BME280;27689;48.390;10.856;2022-08-21T08:36:38;96220.94;;;19.64;89.41
42001;BME280;27689;48.390;10.856;2022-08-21T08:39:22;96228.34;;;19.82;89.63
42001;BME280;27689;48.390;10.856;2022-08-21T08:42:21;96234.31;;;19.97;86.16
42001;BME280;27689;48.390;10.856;2022-08-21T08:45:12;96234.75;;;20.00;88.22
42001;BME280;27689;48.390;10.856;2022-08-21T08:48:02;96239.44;;;20.12;87.92
42001;BME280;27689;48.390;10.856;2022-08-21T08:50:51;96234.97;;;20.32;87.53
42001;BME280;27689;48.390;10.856;2022-08-21T08:53:52;96226.81;;;20.47;85.17
42001;BME280;27689;48.390;10.856;2022-08-21T08:56:39;96224.97;;;20.40;85.63
42001;BME280;27689;48.390;10.856;2022-08-21T08:59:27;96227.00;;;20.52;84.63
42001;BME280;27689;48.390;10.856;2022-08-21T09:02:16;96228.63;;;20.66;87.76
42001;BME280;27689;48.390;10.856;2022-08-21T09:05:01;96224.09;;;20.80;84.01
42001;BME280;27689;48.390;10.856;2022-08-21T09:14:07;96219.16;;;21.54;86.22
42001;BME280;27689;48.390;10.856;2022-08-21T09:17:02;96216.50;;;21.92;85.40
42001;BME280;27689;48.390;10.856;2022-08-21T09:28:59;96209.25;;;22.06;73.00
42001;BME280;27689;48.390;10.856;2022-08-21T09:31:44;96206.31;;;22.14;74.66
42001;BME280;27689;48.390;10.856;2022-08-21T09:34:30;96212.63;;;22.20;69.27
42001;BME280;27689;48.390;10.856;2022-08-21T09:37:18;96209.66;;;22.34;70.16
42001;BME280;27689;48.390;10.856;2022-08-21T09:41:00;96202.16;;;22.43;66.00
42001;BME280;27689;48.390;10.856;2022-08-21T09:43:21;96210.13;;;22.49;71.12
42001;BME280;27689;48.390;10.856;2022-08-21T09:46:11;96208.47;;;22.55;68.76
42001;BME280;27689;48.390;10.856;2022-08-21T09:48:58;96209.47;;;22.79;70.95
42001;BME280;27689;48.390;10.856;2022-08-21T09:51:50;96202.97;;;22.93;68.63
42001;BME280;27689;48.390;10.856;2022-08-21T09:54:38;96202.75;;;23.13;62.37
42001;BME280;27689;48.390;10.856;2022-08-21T09:57:28;96202.59;;;23.08;63.85
42001;BME280;27689;48.390;10.856;2022-08-21T10:03:19;96193.31;;;23.29;65.09
42001;BME280;27689;48.390;10.856;2022-08-21T10:06:05;96188.78;;;23.29;62.00
42001;BME280;27689;48.390;10.856;2022-08-21T10:09:13;96191.53;;;23.23;57.79
42001;BME280;27689;48.390;10.856;2022-08-21T10:12:16;96186.00;;;23.36;60.22
42001;BME280;27689;48.390;10.856;2022-08-21T10:21:21;96181.75;;;23.65;61.77
42001;BME280;27689;48.390;10.856;2022-08-21T10:24:18;96185.03;;;23.67;59.57
42001;BME280;27689;48.390;10.856;2022-08-21T10:36:14;96183.78;;;23.81;52.18
42001;BME280;27689;48.390;10.856;2022-08-21T10:39:35;96172.03;;;23.82;56.34
42001;BME280;27689;48.390;10.856;2022-08-21T10:42:31;96180.66;;;24.25;50.70
42001;BME280;27689;48.390;10.856;2022-08-21T10:48:36;96167.09;;;24.09;51.59
42001;BME280;27689;48.390;10.856;2022-08-21T10:51:32;96162.28;;;24.29;52.51
42001;BME280;27689;48.390;10.856;2022-08-21T11:00:20;96161.81;;;24.55;51.00
42001;BME280;27689;48.390;10.856;2022-08-21T11:06:02;96154.00;;;24.89;47.15
42001;BME280;27689;48.390;10.856;2022-08-21T11:08:58;96150.50;;;24.88;49.88
42001;BME280;27689;48.390;10.856;2022-08-21T11:11:53;96148.16;;;24.92;48.04
42001;BME280;27689;48.390;10.856;2022-08-21T11:15:03;96152.03;;;24.73;47.91
42001;BME280;27689;48.390;10.856;2022-08-21T11:17:58;96152.28;;;24.48;49.47
42001;BME280;27689;48.390;10.856;2022-08-21T11:24:30;96148.13;;;24.10;50.82
42001;BME280;27689;48.390;10.856;2022-08-21T11:27:28;96146.44;;;24.51;49.32
42001;BME280;27689;48.390;10.856;2022-08-21T11:30:16;96138.63;;;24.84;49.96
42001;BME280;27689;48.390;10.856;2022-08-21T11:33:17;96136.16;;;24.94;
42001;BME280;27689;48.390;10.856;2022-08-21T11:40:02;96142.53;;;25.17;44.77
42001;BME280;27689;48.390;10.856;2022-08-21T11:43:12;96128.16;;;25.23;43.94
42001;BME280;27689;48.390;10.856;2022-08-21T11:49:39;96125.78;;;25.38;43.54
42001;BME280;27689;48.390;10.856;2022-08-21T11:52:35;96122.25;;;25.78;46.39
42001;BME280;27689;48.390;10.856;2022-08-21T11:55:31;96120.72;;;25.82;42.26
42001;BME280;27689;48.390;10.856;2022-08-21T11:58:22;96118.53;;;25.95;45.61
42001;BME280;27689;48.390;10.856;2022-08-21T12:01:27;96126.19;;;26.04;43.28
42001;BME280;27689;48.390;10.856;2022-08-21T12:04:25;96110.72;;;25.94;42.12
42001;BME280;27689;48.390;10.856;2022-08-21T12:07:13;96114.59;;;25.86;42.33
42001;BME280;27689;48.390;10.856;2022-08-21T12:09:59;96106.56;;;26.03;44.34
42001;BME280;27689;48.390;10.856;2022-08-21T12:12:44;96110.78;;;25.82;42.78
42001;BME280;27689;48.390;10.856;2022-08-21T12:15:28;96112.66;;;25.53;43.87
42001;BME280;27689;48.390;10.856;2022-08-21T12:18:28;96114.84;;;25.56;42.99
42001;BME280;27689;48.390;10.856;2022-08-21T12:21:22;96103.59;;;25.71;42.56
42001;BME280;27689;48.390;10.856;2022-08-21T12:26:59;96102.47;;;25.84;40.15
42001;BME280;27689;48.390;10.856;2022-08-21T12:29:50;96102.66;;;25.20;42.14
42001;BME280;27689;48.390;10.856;2022-08-21T12:35:25;96093.22;;;25.46;39.66
42001;BME280;27689;48.390;10.856;2022-08-21T12:38:17;96076.38;;;25.96;40.86
42001;BME280;27689;48.390;10.856;2022-08-21T12:41:18;96077.34;;;26.23;38.71
42001;BME280;27689;48.390;10.856;2022-08-21T12:44:12;96076.19;;;26.19;38.43
42001;BME280;27689;48.390;10.856;2022-08-21T12:47:01;96080.34;;;26.27;38.05
42001;BME280;27689;48.390;10.856;2022-08-21T12:50:11;96067.16;;;26.42;38.97
42001;BME280;27689;48.390;10.856;2022-08-21T12:53:04;96061.91;;;26.69;38.95
42001;BME280;27689;48.390;10.856;2022-08-21T12:55:49;96055.44;;;26.92;39.05
42001;BME280;27689;48.390;10.856;2022-08-21T12:58:34;96055.97;;;27.11;39.00
42001;BME280;27689;48.390;10.856;2022-08-21T13:01:24;96056.44;;;27.29;39.25
42001;BME280;27689;48.390;10.856;2022-08-21T13:04:11;96048.63;;;27.28;36.85
42001;BME280;27689;48.390;10.856;2022-08-21T13:06:58;96052.25;;;27.17;36.64
42001;BME280;27689;48.390;10.856;2022-08-21T13:09:48;96043.56;;;27.10;38.40
42001;BME280;27689;48.390;10.856;2022-08-21T13:12:34;96049.44;;;27.28;37.01
42001;BME280;27689;48.390;10.856;2022-08-21T13:15:29;96041.63;;;27.05;38.28
42001;BME280;27689;48.390;10.856;2022-08-21T13:18:23;96044.75;;;27.19;38.61
42001;BME280;27689;48.390;10.856;2022-08-21T13:21:12;96044.34;;;27.32;36.57
42001;BME280;27689;48.390;10.856;2022-08-21T13:24:34;96041.53;;;27.49;37.41
42001;BME280;27689;48.390;10.856;2022-08-21T13:27:28;96036.72;;;27.78;37.12
42001;BME280;27689;48.390;10.856;2022-08-21T13:30:18;96041.41;;;27.60;36.60
42001;BME280;27689;48.390;10.856;2022-08-21T13:33:04;96029.69;;;27.71;37.42
42001;BME280;27689;48.390;10.856;2022-08-21T13:38:41;96038.78;;;27.65;37.23
42001;BME280;27689;48.390;10.856;2022-08-21T13:41:27;96043.59;;;27.63;36.85
42001;BME280;27689;48.390;10.856;2022-08-21T13:44:19;96034.28;;;27.49;36.52
42001;BME280;27689;48.390;10.856;2022-08-21T13:47:05;96036.41;;;27.47;37.11
42001;BME280;27689;48.390;10.856;2022-08-21T13:49:51;96033.38;;;27.65;37.64
42001;BME280;27689;48.390;10.856;2022-08-21T13:52:47;96029.06;;;27.64;38.79
42001;BME280;27689;48.390;10.856;2022-08-21T13:55:36;96034.13;;;27.34;37.18
42001;BME280;27689;48.390;10.856;2022-08-21T13:59:00;96037.03;;;27.27;39.54
42001;BME280;27689;48.390;10.856;2022-08-21T14:01:51;96035.66;;;27.25;38.36
42001;BME280;27689;48.390;10.856;2022-08-21T14:04:44;96039.97;;;26.99;37.96
42001;BME280;27689;48.390;10.856;2022-08-21T14:07:38;96035.69;;;26.59;38.53
42001;BME280;27689;48.390;10.856;2022-08-21T14:10:23;96030.34;;;26.43;39.60
42001;BME280;27689;48.390;10.856;2022-08-21T14:13:07;96025.53;;;26.45;39.63
42001;BME280;27689;48.390;10.856;2022-08-21T14:15:57;96022.25;;;26.38;38.53
42001;BME280;27689;48.390;10.856;2022-08-21T14:18:54;96031.03;;;26.33;38.84
42001;BME280;27689;48.390;10.856;2022-08-21T14:21:51;96030.22;;;25.99;39.34
42001;BME280;27689;48.390;10.856;2022-08-21T14:24:39;96023.34;;;25.86;40.07
42001;BME280;27689;48.390;10.856;2022-08-21T14:27:23;96020.81;;;25.96;40.71
42001;BME280;27689;48.390;10.856;2022-08-21T14:30:20;96025.53;;;25.89;40.55
42001;BME280;27689;48.390;10.856;2022-08-21T14:33:09;96026.69;;;25.77;41.94
42001;BME280;27689;48.390;10.856;2022-08-21T14:35:54;96036.41;;;25.83;42.81
42001;BME280;27689;48.390;10.856;2022-08-21T14:38:39;96027.34;;;25.67;41.68
42001;BME280;27689;48.390;10.856;2022-08-21T14:41:25;96029.44;;;25.65;42.67
42001;BME280;27689;48.390;10.856;2022-08-21T14:44:11;96024.09;;;25.53;43.37
42001;BME280;27689;48.390;10.856;2022-08-21T14:46:55;96021.03;;;25.45;45.68
42001;BME280;27689;48.390;10.856;2022-08-21T14:49:39;96018.88;;;25.30;45.53
42001;BME280;27689;48.390;10.856;2022-08-21T14:52:25;96011.47;;;25.20;46.48
42001;BME280;27689;48.390;10.856;2022-08-21T14:55:09;96017.16;;;25.07;45.86
42001;BME280;27689;48.390;10.856;2022-08-21T14:57:57;96019.97;;;25.01;48.38
42001;BME280;27689;48.390;10.856;2022-08-21T15:00:41;96020.56;;;24.91;45.48
42001;BME280;27689;48.390;10.856;2022-08-21T15:03:25;96016.38;;;24.83;45.89
42001;BME280;27689;48.390;10.856;2022-08-21T15:06:10;96014.75;;;24.82;47.88
42001;BME280;27689;48.390;10.856;2022-08-21T15:08:54;96008.72;;;24.75;46.17
42001;BME280;27689;48.390;10.856;2022-08-21T15:11:38;96015.66;;;24.59;45.90
42001;BME280;27689;48.390;10.856;2022-08-21T15:14:25;96016.00;;;24.63;45.96
42001;BME280;27689;48.390;10.856;2022-08-21T15:17:10;96008.63;;;24.70;47.59
42001;BME280;27689;48.390;10.856;2022-08-21T15:19:55;96010.13;;;24.78;48.31
42001;BME280;27689;48.390;10.856;2022-08-21T15:22:40;95997.50;;;24.78;46.19
42001;BME280;27689;48.390;10.856;2022-08-21T15:25:24;96000.28;;;24.83;46.19
42001;BME280;27689;48.390;10.856;2022-08-21T15:28:08;95988.69;;;24.78;45.16
42001;BME280;27689;48.390;10.856;2022-08-21T15:30:53;95993.22;;;24.77;45.87
42001;BME280;27689;48.390;10.856;2022-08-21T15:33:37;95984.91;;;24.79;47.25
42001;BME280;27689;48.390;10.856;2022-08-21T15:36:21;95981.19;;;24.80;44.96
42001;BME280;27689;48.390;10.856;2022-08-21T15:39:05;95979.09;;;24.82;42.80
42001;BME280;27689;48.390;10.856;2022-08-21T15:41:48;95986.00;;;24.78;43.52